X  Chiuso Dati meteorologici dell'aviazione (METAR)     EHAM Amsterdam Airport Schiphol
Temperatura
75°F Temperatura
63°F Punto di rugiada
65% Umidità



Vento
8 MPH
13 KM/O
4 M/S
7 KTS



110°
ESE
Condizioni attuali

Chiaro Chiaro
Pressione 1017.95 (hPa) - 30.06 (inHg)
Visibilità 6 (miglio) - 9.7 (km)
Aeroporto
Codice-Aeroporto EHAM

Posizione: Amsterdam Airport Schiphol
Distanza: 26 (mi)

Metar:
EHAM 191055Z 11007KT 080V140 CAVOK 24/17 Q1018 NOSIG

Ore: 19-07-2024 12:55 CEST